sensor_id;sensor_type;location;lat;lon;timestamp;pressure;altitude;pressure_sealevel;temperature;humidity
51067;BME280;37112;45.892;-123.962;2023-07-30T00:02:09;102017.67;;;20.81;67.74
51067;BME280;37112;45.892;-123.962;2023-07-30T00:04:26;102015.84;;;20.74;68.25
51067;BME280;37112;45.892;-123.962;2023-07-30T00:06:40;102016.66;;;20.78;68.52
51067;BME280;37112;45.892;-123.962;2023-07-30T00:08:53;102011.89;;;20.77;67.94
51067;BME280;37112;45.892;-123.962;2023-07-30T00:11:08;102011.87;;;20.73;68.44
51067;BME280;37112;45.892;-123.962;2023-07-30T00:13:22;102009.36;;;20.75;68.48
51067;BME280;37112;45.892;-123.962;2023-07-30T00:15:37;102010.00;;;20.80;68.48
51067;BME280;37112;45.892;-123.962;2023-07-30T00:17:51;102009.44;;;20.82;68.21
51067;BME280;37112;45.892;-123.962;2023-07-30T00:20:07;102009.74;;;20.85;67.89
51067;BME280;37112;45.892;-123.962;2023-07-30T00:22:26;102006.79;;;20.86;67.99
51067;BME280;37112;45.892;-123.962;2023-07-30T00:24:40;102005.70;;;20.86;67.41
51067;BME280;37112;45.892;-123.962;2023-07-30T00:26:54;102005.82;;;20.80;67.18
51067;BME280;37112;45.892;-123.962;2023-07-30T00:29:08;102006.58;;;20.78;66.88
51067;BME280;37112;45.892;-123.962;2023-07-30T00:31:22;102003.27;;;20.73;66.59
51067;BME280;37112;45.892;-123.962;2023-07-30T00:33:37;102003.59;;;20.71;66.35
51067;BME280;37112;45.892;-123.962;2023-07-30T00:35:53;102003.80;;;20.75;66.50
51067;BME280;37112;45.892;-123.962;2023-07-30T00:38:07;101999.23;;;20.78;65.74
51067;BME280;37112;45.892;-123.962;2023-07-30T00:40:21;102000.52;;;20.79;65.95
51067;BME280;37112;45.892;-123.962;2023-07-30T00:42:35;102000.88;;;20.88;65.20
51067;BME280;37112;45.892;-123.962;2023-07-30T00:44:48;102003.36;;;20.83;64.58
51067;BME280;37112;45.892;-123.962;2023-07-30T00:47:02;102003.48;;;20.80;64.42
51067;BME280;37112;45.892;-123.962;2023-07-30T00:49:19;102001.69;;;20.76;64.83
51067;BME280;37112;45.892;-123.962;2023-07-30T00:51:34;101998.08;;;20.74;64.29
51067;BME280;37112;45.892;-123.962;2023-07-30T00:53:48;101995.36;;;20.74;64.92
51067;BME280;37112;45.892;-123.962;2023-07-30T00:56:02;101999.49;;;20.74;64.42
51067;BME280;37112;45.892;-123.962;2023-07-30T00:58:18;101993.35;;;20.73;64.47
51067;BME280;37112;45.892;-123.962;2023-07-30T01:00:34;101994.37;;;20.69;63.93
51067;BME280;37112;45.892;-123.962;2023-07-30T01:02:48;101993.69;;;20.69;64.38
51067;BME280;37112;45.892;-123.962;2023-07-30T01:05:03;101992.95;;;20.67;64.30
51067;BME280;37112;45.892;-123.962;2023-07-30T01:07:17;101991.39;;;20.67;64.37
51067;BME280;37112;45.892;-123.962;2023-07-30T01:09:32;101991.34;;;20.69;64.52
51067;BME280;37112;45.892;-123.962;2023-07-30T01:11:47;101991.89;;;20.71;64.40
51067;BME280;37112;45.892;-123.962;2023-07-30T01:14:02;101994.05;;;20.67;63.82
51067;BME280;37112;45.892;-123.962;2023-07-30T01:16:17;101991.66;;;20.62;64.09
51067;BME280;37112;45.892;-123.962;2023-07-30T01:18:30;101990.79;;;20.55;64.13
51067;BME280;37112;45.892;-123.962;2023-07-30T01:20:48;101988.73;;;20.54;64.49
51067;BME280;37112;45.892;-123.962;2023-07-30T01:23:03;101990.14;;;20.52;64.50
51067;BME280;37112;45.892;-123.962;2023-07-30T01:25:19;101986.70;;;20.50;65.18
51067;BME280;37112;45.892;-123.962;2023-07-30T01:27:39;101987.45;;;20.50;65.43
51067;BME280;37112;45.892;-123.962;2023-07-30T01:30:03;101987.27;;;20.46;65.24
51067;BME280;37112;45.892;-123.962;2023-07-30T01:32:24;101987.45;;;20.40;65.23
51067;BME280;37112;45.892;-123.962;2023-07-30T01:34:40;101987.85;;;20.35;65.08
51067;BME280;37112;45.892;-123.962;2023-07-30T01:36:54;101994.70;;;20.34;65.22
51067;BME280;37112;45.892;-123.962;2023-07-30T01:39:08;101988.81;;;20.30;64.70
51067;BME280;37112;45.892;-123.962;2023-07-30T01:41:23;101988.45;;;20.25;64.52
51067;BME280;37112;45.892;-123.962;2023-07-30T01:43:40;101985.57;;;20.20;64.67
51067;BME280;37112;45.892;-123.962;2023-07-30T01:45:54;101985.98;;;20.16;64.29
51067;BME280;37112;45.892;-123.962;2023-07-30T01:48:08;101985.55;;;20.12;64.29
51067;BME280;37112;45.892;-123.962;2023-07-30T01:50:22;101987.23;;;20.10;64.33
51067;BME280;37112;45.892;-123.962;2023-07-30T01:52:36;101985.80;;;20.05;63.84
51067;BME280;37112;45.892;-123.962;2023-07-30T01:54:50;101987.46;;;20.01;64.14
51067;BME280;37112;45.892;-123.962;2023-07-30T01:57:06;101987.99;;;19.99;64.48
51067;BME280;37112;45.892;-123.962;2023-07-30T01:59:20;101987.05;;;19.95;64.35
51067;BME280;37112;45.892;-123.962;2023-07-30T02:01:34;101986.33;;;19.91;64.83
51067;BME280;37112;45.892;-123.962;2023-07-30T02:03:49;101990.30;;;19.93;65.08
51067;BME280;37112;45.892;-123.962;2023-07-30T02:06:04;101987.80;;;19.91;64.65
51067;BME280;37112;45.892;-123.962;2023-07-30T02:08:17;101985.36;;;19.82;64.52
51067;BME280;37112;45.892;-123.962;2023-07-30T02:10:30;101983.55;;;19.78;64.72
51067;BME280;37112;45.892;-123.962;2023-07-30T02:12:44;101982.95;;;19.78;65.07
51067;BME280;37112;45.892;-123.962;2023-07-30T02:14:58;101981.40;;;19.80;65.03
51067;BME280;37112;45.892;-123.962;2023-07-30T02:17:12;101984.92;;;19.72;64.48
51067;BME280;37112;45.892;-123.962;2023-07-30T02:19:25;101986.81;;;19.65;64.24
51067;BME280;37112;45.892;-123.962;2023-07-30T02:21:41;101985.70;;;19.52;63.85
51067;BME280;37112;45.892;-123.962;2023-07-30T02:23:54;101988.65;;;19.39;64.03
51067;BME280;37112;45.892;-123.962;2023-07-30T02:26:08;101990.77;;;19.31;64.45
51067;BME280;37112;45.892;-123.962;2023-07-30T02:28:21;101990.10;;;19.21;64.20
51067;BME280;37112;45.892;-123.962;2023-07-30T02:30:35;101989.17;;;19.15;64.28
51067;BME280;37112;45.892;-123.962;2023-07-30T02:32:48;101989.33;;;19.09;64.36
51067;BME280;37112;45.892;-123.962;2023-07-30T02:35:03;101990.05;;;19.01;64.87
51067;BME280;37112;45.892;-123.962;2023-07-30T02:37:16;101989.86;;;19.01;65.21
51067;BME280;37112;45.892;-123.962;2023-07-30T02:39:30;101991.48;;;19.03;65.21
51067;BME280;37112;45.892;-123.962;2023-07-30T02:41:43;101991.67;;;19.01;65.06
51067;BME280;37112;45.892;-123.962;2023-07-30T02:43:57;101992.56;;;18.97;65.26
51067;BME280;37112;45.892;-123.962;2023-07-30T02:46:12;101997.54;;;18.93;65.38
51067;BME280;37112;45.892;-123.962;2023-07-30T02:48:25;101996.85;;;18.88;65.65
51067;BME280;37112;45.892;-123.962;2023-07-30T02:50:39;101996.19;;;18.83;65.84
51067;BME280;37112;45.892;-123.962;2023-07-30T02:52:53;101995.41;;;18.77;65.90
51067;BME280;37112;45.892;-123.962;2023-07-30T02:55:08;101995.19;;;18.73;65.97
51067;BME280;37112;45.892;-123.962;2023-07-30T02:57:22;101994.90;;;18.68;66.16
51067;BME280;37112;45.892;-123.962;2023-07-30T02:59:35;101997.45;;;18.60;66.48
51067;BME280;37112;45.892;-123.962;2023-07-30T03:01:49;101996.35;;;18.52;66.55
51067;BME280;37112;45.892;-123.962;2023-07-30T03:04:03;101994.63;;;18.47;66.87
51067;BME280;37112;45.892;-123.962;2023-07-30T03:06:16;101999.16;;;18.44;66.92
51067;BME280;37112;45.892;-123.962;2023-07-30T03:08:29;101998.08;;;18.42;67.08
51067;BME280;37112;45.892;-123.962;2023-07-30T03:10:42;101995.36;;;18.35;67.08
51067;BME280;37112;45.892;-123.962;2023-07-30T03:12:55;101997.16;;;18.31;67.46
51067;BME280;37112;45.892;-123.962;2023-07-30T03:15:12;101999.63;;;18.25;67.27
51067;BME280;37112;45.892;-123.962;2023-07-30T03:17:26;102003.42;;;18.18;67.39
51067;BME280;37112;45.892;-123.962;2023-07-30T03:19:39;102003.18;;;18.16;67.68
51067;BME280;37112;45.892;-123.962;2023-07-30T03:21:51;102002.90;;;18.11;67.83
51067;BME280;37112;45.892;-123.962;2023-07-30T03:24:05;102004.80;;;18.04;68.02
51067;BME280;37112;45.892;-123.962;2023-07-30T03:26:18;102004.88;;;17.99;68.23
51067;BME280;37112;45.892;-123.962;2023-07-30T03:28:31;102003.36;;;17.96;68.52
51067;BME280;37112;45.892;-123.962;2023-07-30T03:30:49;102002.88;;;17.93;68.49
51067;BME280;37112;45.892;-123.962;2023-07-30T03:33:02;102002.54;;;17.93;68.80
51067;BME280;37112;45.892;-123.962;2023-07-30T03:35:16;101999.20;;;17.91;68.82
51067;BME280;37112;45.892;-123.962;2023-07-30T03:37:30;101996.17;;;17.91;68.86
51067;BME280;37112;45.892;-123.962;2023-07-30T03:39:44;101994.75;;;17.93;69.08
51067;BME280;37112;45.892;-123.962;2023-07-30T03:41:58;101993.98;;;17.94;69.08
51067;BME280;37112;45.892;-123.962;2023-07-30T03:44:12;101997.14;;;17.95;69.05
51067;BME280;37112;45.892;-123.962;2023-07-30T03:46:26;101996.69;;;17.94;69.18
51067;BME280;37112;45.892;-123.962;2023-07-30T03:48:40;101995.13;;;17.91;69.21
51067;BME280;37112;45.892;-123.962;2023-07-30T03:50:54;101997.89;;;17.88;69.14
51067;BME280;37112;45.892;-123.962;2023-07-30T03:53:07;101992.48;;;17.86;69.31
51067;BME280;37112;45.892;-123.962;2023-07-30T03:55:22;101991.73;;;17.84;69.25
51067;BME280;37112;45.892;-123.962;2023-07-30T03:57:36;101996.73;;;17.82;69.22
51067;BME280;37112;45.892;-123.962;2023-07-30T03:59:49;101999.52;;;17.80;69.37
51067;BME280;37112;45.892;-123.962;2023-07-30T04:02:03;101997.92;;;17.80;69.37
51067;BME280;37112;45.892;-123.962;2023-07-30T04:04:17;101999.05;;;17.79;69.28
51067;BME280;37112;45.892;-123.962;2023-07-30T04:06:30;102002.51;;;17.77;69.27
51067;BME280;37112;45.892;-123.962;2023-07-30T04:08:43;102007.67;;;17.73;69.17
51067;BME280;37112;45.892;-123.962;2023-07-30T04:10:57;102007.70;;;17.70;69.33
51067;BME280;37112;45.892;-123.962;2023-07-30T04:13:11;102007.33;;;17.67;69.29
51067;BME280;37112;45.892;-123.962;2023-07-30T04:15:24;102012.59;;;17.67;69.35
51067;BME280;37112;45.892;-123.962;2023-07-30T04:17:38;102008.20;;;17.65;69.45
51067;BME280;37112;45.892;-123.962;2023-07-30T04:19:52;102011.14;;;17.65;69.51
51067;BME280;37112;45.892;-123.962;2023-07-30T04:22:05;102011.22;;;17.61;69.33
51067;BME280;37112;45.892;-123.962;2023-07-30T04:24:19;102013.98;;;17.58;69.37
51067;BME280;37112;45.892;-123.962;2023-07-30T04:26:32;102023.54;;;17.55;69.39
51067;BME280;37112;45.892;-123.962;2023-07-30T04:28:46;102022.19;;;17.51;69.34
51067;BME280;37112;45.892;-123.962;2023-07-30T04:31:00;102023.54;;;17.46;69.14
51067;BME280;37112;45.892;-123.962;2023-07-30T04:33:13;102022.20;;;17.40;69.28
51067;BME280;37112;45.892;-123.962;2023-07-30T04:35:30;102023.72;;;17.34;69.25
51067;BME280;37112;45.892;-123.962;2023-07-30T04:37:44;102030.79;;;17.29;69.43
51067;BME280;37112;45.892;-123.962;2023-07-30T04:39:57;102028.57;;;17.24;69.56
51067;BME280;37112;45.892;-123.962;2023-07-30T04:42:13;102028.58;;;17.17;69.36
51067;BME280;37112;45.892;-123.962;2023-07-30T04:44:26;102025.12;;;17.10;69.38
51067;BME280;37112;45.892;-123.962;2023-07-30T04:46:47;102027.31;;;17.05;69.52
51067;BME280;37112;45.892;-123.962;2023-07-30T04:49:04;102030.86;;;17.01;69.61
51067;BME280;37112;45.892;-123.962;2023-07-30T04:51:17;102028.88;;;16.96;69.70
51067;BME280;37112;45.892;-123.962;2023-07-30T04:53:31;102030.49;;;16.91;69.78
51067;BME280;37112;45.892;-123.962;2023-07-30T04:55:45;102025.06;;;16.87;69.97
51067;BME280;37112;45.892;-123.962;2023-07-30T04:57:58;102026.42;;;16.83;69.91
51067;BME280;37112;45.892;-123.962;2023-07-30T05:00:14;102024.79;;;16.78;70.01
51067;BME280;37112;45.892;-123.962;2023-07-30T05:02:28;102025.25;;;16.75;70.10
51067;BME280;37112;45.892;-123.962;2023-07-30T05:04:41;102027.06;;;16.69;70.12
51067;BME280;37112;45.892;-123.962;2023-07-30T05:06:55;102027.42;;;16.64;70.07
51067;BME280;37112;45.892;-123.962;2023-07-30T05:09:08;102026.88;;;16.57;69.96
51067;BME280;37112;45.892;-123.962;2023-07-30T05:11:22;102025.70;;;16.51;70.06
51067;BME280;37112;45.892;-123.962;2023-07-30T05:13:35;102026.29;;;16.48;70.26
51067;BME280;37112;45.892;-123.962;2023-07-30T05:15:49;102025.16;;;16.43;70.28
51067;BME280;37112;45.892;-123.962;2023-07-30T05:18:03;102028.12;;;16.39;70.43
51067;BME280;37112;45.892;-123.962;2023-07-30T05:20:20;102024.42;;;16.36;70.68
51067;BME280;37112;45.892;-123.962;2023-07-30T05:22:34;102027.85;;;16.33;70.73
51067;BME280;37112;45.892;-123.962;2023-07-30T05:24:48;102031.97;;;16.28;70.82
51067;BME280;37112;45.892;-123.962;2023-07-30T05:27:03;102031.17;;;16.24;70.87
51067;BME280;37112;45.892;-123.962;2023-07-30T05:29:18;102034.77;;;16.19;70.82
51067;BME280;37112;45.892;-123.962;2023-07-30T05:31:33;102028.50;;;16.11;70.74
51067;BME280;37112;45.892;-123.962;2023-07-30T05:33:50;102029.44;;;16.05;70.94
51067;BME280;37112;45.892;-123.962;2023-07-30T05:36:03;102031.55;;;16.01;71.04
51067;BME280;37112;45.892;-123.962;2023-07-30T05:38:17;102032.92;;;15.97;71.14
51067;BME280;37112;45.892;-123.962;2023-07-30T05:40:30;102033.43;;;15.95;71.40
51067;BME280;37112;45.892;-123.962;2023-07-30T05:42:46;102032.15;;;15.93;71.59
51067;BME280;37112;45.892;-123.962;2023-07-30T05:44:59;102033.41;;;15.87;71.52
51067;BME280;37112;45.892;-123.962;2023-07-30T05:47:12;102033.34;;;15.83;71.64
51067;BME280;37112;45.892;-123.962;2023-07-30T05:49:25;102032.31;;;15.80;71.77
51067;BME280;37112;45.892;-123.962;2023-07-30T05:51:40;102031.46;;;15.76;71.91
51067;BME280;37112;45.892;-123.962;2023-07-30T05:53:53;102031.52;;;15.75;72.16
51067;BME280;37112;45.892;-123.962;2023-07-30T05:56:07;102029.91;;;15.73;72.22
51067;BME280;37112;45.892;-123.962;2023-07-30T05:58:21;102032.09;;;15.70;72.27
51067;BME280;37112;45.892;-123.962;2023-07-30T06:00:35;102033.34;;;15.67;72.40
51067;BME280;37112;45.892;-123.962;2023-07-30T06:02:49;102031.16;;;15.62;72.42
51067;BME280;37112;45.892;-123.962;2023-07-30T06:05:03;102025.30;;;15.56;72.41
51067;BME280;37112;45.892;-123.962;2023-07-30T06:07:17;102024.79;;;15.50;72.57
51067;BME280;37112;45.892;-123.962;2023-07-30T06:09:30;102023.23;;;15.47;72.76
51067;BME280;37112;45.892;-123.962;2023-07-30T06:11:44;102028.04;;;15.45;72.99
51067;BME280;37112;45.892;-123.962;2023-07-30T06:13:57;102026.03;;;15.43;73.15
51067;BME280;37112;45.892;-123.962;2023-07-30T06:16:10;102026.16;;;15.41;73.33
51067;BME280;37112;45.892;-123.962;2023-07-30T06:18:24;102023.66;;;15.38;73.36
51067;BME280;37112;45.892;-123.962;2023-07-30T06:20:37;102026.11;;;15.36;73.54
51067;BME280;37112;45.892;-123.962;2023-07-30T06:22:51;102026.29;;;15.33;73.67
51067;BME280;37112;45.892;-123.962;2023-07-30T06:25:06;102028.37;;;15.31;73.80
51067;BME280;37112;45.892;-123.962;2023-07-30T06:27:21;102031.41;;;15.29;73.91
51067;BME280;37112;45.892;-123.962;2023-07-30T06:29:34;102032.13;;;15.26;74.05
51067;BME280;37112;45.892;-123.962;2023-07-30T06:31:48;102032.15;;;15.23;74.05
51067;BME280;37112;45.892;-123.962;2023-07-30T06:34:01;102032.17;;;15.20;74.10
51067;BME280;37112;45.892;-123.962;2023-07-30T06:36:15;102035.17;;;15.18;74.20
51067;BME280;37112;45.892;-123.962;2023-07-30T06:38:28;102034.64;;;15.15;74.26
51067;BME280;37112;45.892;-123.962;2023-07-30T06:40:43;102034.25;;;15.13;74.35
51067;BME280;37112;45.892;-123.962;2023-07-30T06:42:56;102035.66;;;15.11;74.44
51067;BME280;37112;45.892;-123.962;2023-07-30T06:45:10;102035.80;;;15.09;74.54
51067;BME280;37112;45.892;-123.962;2023-07-30T06:47:27;102035.92;;;15.06;74.66
51067;BME280;37112;45.892;-123.962;2023-07-30T06:49:42;102033.70;;;15.05;74.83
51067;BME280;37112;45.892;-123.962;2023-07-30T06:51:55;102034.59;;;15.02;74.78
51067;BME280;37112;45.892;-123.962;2023-07-30T06:54:11;102033.28;;;15.01;74.97
51067;BME280;37112;45.892;-123.962;2023-07-30T06:56:25;102037.89;;;14.98;75.02
51067;BME280;37112;45.892;-123.962;2023-07-30T06:58:38;102040.26;;;14.95;75.01
51067;BME280;37112;45.892;-123.962;2023-07-30T07:00:52;102043.09;;;14.93;75.13
51067;BME280;37112;45.892;-123.962;2023-07-30T07:03:05;102040.36;;;14.91;75.08
51067;BME280;37112;45.892;-123.962;2023-07-30T07:05:19;102039.64;;;14.88;75.24
51067;BME280;37112;45.892;-123.962;2023-07-30T07:07:32;102038.98;;;14.88;75.32
51067;BME280;37112;45.892;-123.962;2023-07-30T07:09:49;102040.54;;;14.85;75.41
51067;BME280;37112;45.892;-123.962;2023-07-30T07:12:08;102040.13;;;14.84;75.50
51067;BME280;37112;45.892;-123.962;2023-07-30T07:14:24;102036.17;;;14.81;75.55
51067;BME280;37112;45.892;-123.962;2023-07-30T07:16:38;102040.77;;;14.79;75.62
51067;BME280;37112;45.892;-123.962;2023-07-30T07:18:52;102036.23;;;14.77;75.71
51067;BME280;37112;45.892;-123.962;2023-07-30T07:21:05;102038.14;;;14.75;75.75
51067;BME280;37112;45.892;-123.962;2023-07-30T07:23:20;102036.19;;;14.72;75.86
51067;BME280;37112;45.892;-123.962;2023-07-30T07:25:33;102035.35;;;14.72;75.99
51067;BME280;37112;45.892;-123.962;2023-07-30T07:27:46;102034.46;;;14.68;75.99
51067;BME280;37112;45.892;-123.962;2023-07-30T07:30:00;102034.06;;;14.66;76.10
51067;BME280;37112;45.892;-123.962;2023-07-30T07:32:14;102036.19;;;14.64;76.17
51067;BME280;37112;45.892;-123.962;2023-07-30T07:34:33;102032.61;;;14.61;76.12
51067;BME280;37112;45.892;-123.962;2023-07-30T07:36:50;102034.77;;;14.58;76.30
51067;BME280;37112;45.892;-123.962;2023-07-30T07:39:07;102031.50;;;14.56;76.47
51067;BME280;37112;45.892;-123.962;2023-07-30T07:41:21;102029.09;;;14.55;76.51
51067;BME280;37112;45.892;-123.962;2023-07-30T07:43:35;102026.89;;;14.53;76.61
51067;BME280;37112;45.892;-123.962;2023-07-30T07:45:50;102028.13;;;14.50;76.67
51067;BME280;37112;45.892;-123.962;2023-07-30T07:48:06;102027.02;;;14.48;76.79
51067;BME280;37112;45.892;-123.962;2023-07-30T07:50:20;102025.12;;;14.47;76.82
51067;BME280;37112;45.892;-123.962;2023-07-30T07:52:37;102023.27;;;14.45;76.89
51067;BME280;37112;45.892;-123.962;2023-07-30T07:54:52;102024.51;;;14.42;77.00
51067;BME280;37112;45.892;-123.962;2023-07-30T07:57:06;102025.36;;;14.40;76.99
51067;BME280;37112;45.892;-123.962;2023-07-30T07:59:19;102018.92;;;14.37;77.12
51067;BME280;37112;45.892;-123.962;2023-07-30T08:01:33;102017.95;;;14.35;77.07
51067;BME280;37112;45.892;-123.962;2023-07-30T08:03:50;102017.20;;;14.33;77.41
51067;BME280;37112;45.892;-123.962;2023-07-30T08:06:05;102023.39;;;14.31;77.36
51067;BME280;37112;45.892;-123.962;2023-07-30T08:08:18;102020.77;;;14.28;77.32
51067;BME280;37112;45.892;-123.962;2023-07-30T08:10:37;102019.19;;;14.24;77.43
51067;BME280;37112;45.892;-123.962;2023-07-30T08:12:53;102017.56;;;14.21;77.59
51067;BME280;37112;45.892;-123.962;2023-07-30T08:15:08;102017.77;;;14.18;77.62
51067;BME280;37112;45.892;-123.962;2023-07-30T08:17:24;102020.21;;;14.16;77.74
51067;BME280;37112;45.892;-123.962;2023-07-30T08:19:39;102022.06;;;14.15;77.91
51067;BME280;37112;45.892;-123.962;2023-07-30T08:21:54;102019.02;;;14.12;77.93
51067;BME280;37112;45.892;-123.962;2023-07-30T08:24:09;102019.52;;;14.10;77.99
51067;BME280;37112;45.892;-123.962;2023-07-30T08:26:23;102019.29;;;14.08;78.00
51067;BME280;37112;45.892;-123.962;2023-07-30T08:28:36;102018.31;;;14.06;78.10
51067;BME280;37112;45.892;-123.962;2023-07-30T08:30:53;102013.77;;;14.05;78.26
51067;BME280;37112;45.892;-123.962;2023-07-30T08:33:12;102012.26;;;14.04;78.30
51067;BME280;37112;45.892;-123.962;2023-07-30T08:35:25;102007.54;;;14.02;78.35
51067;BME280;37112;45.892;-123.962;2023-07-30T08:37:42;102008.38;;;14.00;78.39
51067;BME280;37112;45.892;-123.962;2023-07-30T08:39:55;102006.10;;;13.96;78.32
51067;BME280;37112;45.892;-123.962;2023-07-30T08:42:10;102005.39;;;13.93;78.54
51067;BME280;37112;45.892;-123.962;2023-07-30T08:44:23;102003.70;;;13.91;78.69
51067;BME280;37112;45.892;-123.962;2023-07-30T08:46:37;102003.84;;;13.89;78.77
51067;BME280;37112;45.892;-123.962;2023-07-30T08:48:52;102001.26;;;13.88;78.87
51067;BME280;37112;45.892;-123.962;2023-07-30T08:51:08;102002.61;;;13.86;79.01
51067;BME280;37112;45.892;-123.962;2023-07-30T08:53:23;101998.27;;;13.84;79.02
51067;BME280;37112;45.892;-123.962;2023-07-30T08:55:38;102001.94;;;13.82;79.19
51067;BME280;37112;45.892;-123.962;2023-07-30T08:57:56;102006.50;;;13.81;79.19
51067;BME280;37112;45.892;-123.962;2023-07-30T09:00:12;102002.16;;;13.79;79.24
51067;BME280;37112;45.892;-123.962;2023-07-30T09:02:33;102005.80;;;13.78;79.43
51067;BME280;37112;45.892;-123.962;2023-07-30T09:04:55;102008.67;;;13.77;79.52
51067;BME280;37112;45.892;-123.962;2023-07-30T09:07:13;102006.33;;;13.78;79.77
51067;BME280;37112;45.892;-123.962;2023-07-30T09:09:27;102003.60;;;13.79;79.85
51067;BME280;37112;45.892;-123.962;2023-07-30T09:11:41;102005.68;;;13.80;80.02
51067;BME280;37112;45.892;-123.962;2023-07-30T09:13:56;102002.02;;;13.81;80.07
51067;BME280;37112;45.892;-123.962;2023-07-30T09:16:14;102002.48;;;13.82;80.24
51067;BME280;37112;45.892;-123.962;2023-07-30T09:18:28;102005.06;;;13.84;80.35
51067;BME280;37112;45.892;-123.962;2023-07-30T09:20:42;102002.67;;;13.85;80.39
51067;BME280;37112;45.892;-123.962;2023-07-30T09:22:58;102001.77;;;13.85;80.42
51067;BME280;37112;45.892;-123.962;2023-07-30T09:25:11;102001.27;;;13.85;80.45
51067;BME280;37112;45.892;-123.962;2023-07-30T09:27:28;102000.21;;;13.84;80.37
51067;BME280;37112;45.892;-123.962;2023-07-30T09:29:53;102000.97;;;13.83;80.48
51067;BME280;37112;45.892;-123.962;2023-07-30T09:32:10;102001.77;;;13.82;80.42
51067;BME280;37112;45.892;-123.962;2023-07-30T09:34:23;101997.44;;;13.80;80.42
51067;BME280;37112;45.892;-123.962;2023-07-30T09:36:37;101995.41;;;13.78;80.50
51067;BME280;37112;45.892;-123.962;2023-07-30T09:38:51;101998.38;;;13.76;80.44
51067;BME280;37112;45.892;-123.962;2023-07-30T09:41:05;101994.89;;;13.75;80.55
51067;BME280;37112;45.892;-123.962;2023-07-30T09:43:19;101997.35;;;13.73;80.50
51067;BME280;37112;45.892;-123.962;2023-07-30T09:45:36;101996.08;;;13.70;80.61
51067;BME280;37112;45.892;-123.962;2023-07-30T09:47:54;101999.01;;;13.69;80.70
51067;BME280;37112;45.892;-123.962;2023-07-30T09:50:10;101997.71;;;13.67;80.83
51067;BME280;37112;45.892;-123.962;2023-07-30T09:52:25;101995.66;;;13.65;81.01
51067;BME280;37112;45.892;-123.962;2023-07-30T09:54:39;101993.30;;;13.62;81.00
51067;BME280;37112;45.892;-123.962;2023-07-30T09:56:53;101991.81;;;13.61;81.07
51067;BME280;37112;45.892;-123.962;2023-07-30T09:59:07;101987.78;;;13.59;81.08
51067;BME280;37112;45.892;-123.962;2023-07-30T10:01:22;101992.23;;;13.57;81.06
51067;BME280;37112;45.892;-123.962;2023-07-30T10:03:38;101993.60;;;13.55;81.14
51067;BME280;37112;45.892;-123.962;2023-07-30T10:05:52;101995.24;;;13.55;81.29
51067;BME280;37112;45.892;-123.962;2023-07-30T10:08:14;101997.58;;;13.54;81.39
51067;BME280;37112;45.892;-123.962;2023-07-30T10:10:30;101994.07;;;13.53;81.45
51067;BME280;37112;45.892;-123.962;2023-07-30T10:12:45;101994.52;;;13.52;81.62
51067;BME280;37112;45.892;-123.962;2023-07-30T10:15:00;101997.55;;;13.51;81.69
51067;BME280;37112;45.892;-123.962;2023-07-30T10:17:19;101996.52;;;13.51;81.75
51067;BME280;37112;45.892;-123.962;2023-07-30T10:19:35;101997.13;;;13.50;81.66
51067;BME280;37112;45.892;-123.962;2023-07-30T10:21:49;102003.29;;;13.48;81.80
51067;BME280;37112;45.892;-123.962;2023-07-30T10:24:03;101996.31;;;13.48;81.98
51067;BME280;37112;45.892;-123.962;2023-07-30T10:26:29;101997.28;;;13.47;82.01
51067;BME280;37112;45.892;-123.962;2023-07-30T10:28:43;102002.48;;;13.47;82.10
51067;BME280;37112;45.892;-123.962;2023-07-30T10:31:00;101997.88;;;13.46;82.28
51067;BME280;37112;45.892;-123.962;2023-07-30T10:33:16;102004.17;;;13.45;82.38
51067;BME280;37112;45.892;-123.962;2023-07-30T10:35:41;102003.30;;;13.45;82.41
51067;BME280;37112;45.892;-123.962;2023-07-30T10:37:56;102002.90;;;13.45;82.57
51067;BME280;37112;45.892;-123.962;2023-07-30T10:40:20;102002.52;;;13.46;82.65
51067;BME280;37112;45.892;-123.962;2023-07-30T10:42:38;101996.41;;;13.47;82.75
51067;BME280;37112;45.892;-123.962;2023-07-30T10:44:52;101999.10;;;13.47;82.71
51067;BME280;37112;45.892;-123.962;2023-07-30T10:47:06;101996.93;;;13.47;82.80
51067;BME280;37112;45.892;-123.962;2023-07-30T10:49:41;101993.39;;;13.47;82.92
51067;BME280;37112;45.892;-123.962;2023-07-30T10:51:58;101998.13;;;13.44;82.70
51067;BME280;37112;45.892;-123.962;2023-07-30T10:54:12;101998.65;;;13.42;82.77
51067;BME280;37112;45.892;-123.962;2023-07-30T10:56:28;101996.05;;;13.41;82.90
51067;BME280;37112;45.892;-123.962;2023-07-30T10:58:41;101993.59;;;13.40;82.99
51067;BME280;37112;45.892;-123.962;2023-07-30T11:00:56;102000.39;;;13.40;83.07
51067;BME280;37112;45.892;-123.962;2023-07-30T11:03:11;101998.81;;;13.40;83.22
51067;BME280;37112;45.892;-123.962;2023-07-30T11:05:25;101998.27;;;13.40;83.30
51067;BME280;37112;45.892;-123.962;2023-07-30T11:07:39;102000.20;;;13.40;83.34
51067;BME280;37112;45.892;-123.962;2023-07-30T11:10:01;101992.54;;;13.40;83.45
51067;BME280;37112;45.892;-123.962;2023-07-30T11:12:15;101993.34;;;13.38;83.40
51067;BME280;37112;45.892;-123.962;2023-07-30T11:14:33;101993.42;;;13.36;83.45
51067;BME280;37112;45.892;-123.962;2023-07-30T11:16:55;101991.00;;;13.35;83.52
51067;BME280;37112;45.892;-123.962;2023-07-30T11:19:12;101992.85;;;13.34;83.59